This is the latest recevied weather packets stored in our database for station/object NUUKSIO. If no packets are shown the sender has not sent any weather packets the latest 1 day(s).
| Time | Temp. | Humidity | Pressure | Rain* | Wind** | Luminosity | Snow |
|---|---|---|---|---|---|---|---|
| 1778093242 | 5.56° C | 63% | 1014.2 hPa | 0 mm | - | - | - |
| 1778092043 | 7.22° C | 57% | 1014.1 hPa | 0 mm | - | - | - |
| 1778090842 | 7.78° C | 56% | 1014 hPa | 0 mm | - | - | - |
| 1778088441 | 7.78° C | 55% | 1013.9 hPa | 0 mm | - | - | - |
| 1778084842 | 8.89° C | 51% | 1013.6 hPa | 0 mm | - | - | - |
| 1778081242 | 10.56° C | 42% | 1013.4 hPa | 0 mm | - | - | - |
| 1778078841 | 10.56° C | 41% | 1013.6 hPa | 0 mm | - | - | - |
| 1778077641 | 11.11° C | 40% | 1013.5 hPa | 0 mm | - | - | - |
| 1778066841 | 12.22° C | 28% | 1013.4 hPa | 0 mm | - | - | - |
| 1778063241 | 11.11° C | 26% | 1013.3 hPa | 0 mm | - | - | - |
| 1778059641 | 10.56° C | 29% | 1013.1 hPa | 0 mm | - | - | - |
| 1778058442 | 10° C | 38% | 1013.1 hPa | 0 mm | - | - | - |
| 1778054841 | 8.89° C | 37% | 1012.9 hPa | 0 mm | - | - | - |
| 1778053641 | 9.44° C | 37% | 1012.8 hPa | 0 mm | - | - | - |
| 1778051241 | 7.78° C | 50% | 1012.6 hPa | 0 mm | - | - | - |
| 1778050041 | 7.78° C | 52% | 1012.5 hPa | 0 mm | - | - | - |
| 1778048841 | 7.22° C | 56% | 1012.4 hPa | 0 mm | - | - | - |
| 1778047641 | 6.11° C | 62% | 1012.2 hPa | 0 mm | - | - | - |
| 1778045241 | 4.44° C | 74% | 1012 hPa | 0 mm | - | - | - |
| 1778041640 | 1.67° C | 90% | 1011.5 hPa | 0 mm | - | - | - |
| 1778040440 | 0° C | 94% | 1011.4 hPa | 0 mm | - | - | - |
| 1778039240 | -0.56° C | 97% | 1011.2 hPa | 0 mm | - | - | - |
| 1778038040 | -1.11° C | 98% | 1011 hPa | 0 mm | - | - | - |
| 1778036840 | -1.67° C | 97% | 1010.9 hPa | 0 mm | - | - | - |
| 1778035640 | -1.67° C | 97% | 1010.7 hPa | 0 mm | - | - | - |
* Rain latest hour (hover to see other rain measurements)
** Current wind speed in m/s (hover to see current wind gust speed)